sensor_id;sensor_type;location;lat;lon;timestamp;temperature;humidity
24730;DHT22;12832;52.392;13.066;2023-07-30T00:02:24;28.00;52.00
24730;DHT22;12832;52.392;13.066;2023-07-30T00:04:50;28.00;52.00
24730;DHT22;12832;52.392;13.066;2023-07-30T00:07:17;28.00;52.00
24730;DHT22;12832;52.392;13.066;2023-07-30T00:09:43;28.00;52.00
24730;DHT22;12832;52.392;13.066;2023-07-30T00:12:09;28.00;52.00
24730;DHT22;12832;52.392;13.066;2023-07-30T00:14:36;28.00;52.00
24730;DHT22;12832;52.392;13.066;2023-07-30T00:17:02;28.00;52.00
24730;DHT22;12832;52.392;13.066;2023-07-30T00:19:28;28.00;52.60
24730;DHT22;12832;52.392;13.066;2023-07-30T00:21:55;28.00;52.00
24730;DHT22;12832;52.392;13.066;2023-07-30T00:24:21;28.00;52.00
24730;DHT22;12832;52.392;13.066;2023-07-30T00:26:47;28.00;52.00
24730;DHT22;12832;52.392;13.066;2023-07-30T00:29:13;28.00;52.00
24730;DHT22;12832;52.392;13.066;2023-07-30T00:31:39;28.00;52.00
24730;DHT22;12832;52.392;13.066;2023-07-30T00:34:06;28.00;52.00
24730;DHT22;12832;52.392;13.066;2023-07-30T00:36:32;27.90;51.90
24730;DHT22;12832;52.392;13.066;2023-07-30T00:38:59;28.00;52.00
24730;DHT22;12832;52.392;13.066;2023-07-30T00:41:25;28.00;52.00
24730;DHT22;12832;52.392;13.066;2023-07-30T00:43:51;28.00;52.00
24730;DHT22;12832;52.392;13.066;2023-07-30T00:46:17;28.00;52.00
24730;DHT22;12832;52.392;13.066;2023-07-30T00:48:43;28.00;52.00
24730;DHT22;12832;52.392;13.066;2023-07-30T00:51:13;28.00;52.00
24730;DHT22;12832;52.392;13.066;2023-07-30T00:53:40;28.00;52.00
24730;DHT22;12832;52.392;13.066;2023-07-30T00:56:07;27.90;51.90
24730;DHT22;12832;52.392;13.066;2023-07-30T00:58:33;28.00;52.00
24730;DHT22;12832;52.392;13.066;2023-07-30T01:00:59;27.90;51.90
24730;DHT22;12832;52.392;13.066;2023-07-30T01:03:26;28.00;51.90
24730;DHT22;12832;52.392;13.066;2023-07-30T01:05:53;28.00;51.90
24730;DHT22;12832;52.392;13.066;2023-07-30T01:08:20;28.00;51.90
24730;DHT22;12832;52.392;13.066;2023-07-30T01:10:46;28.00;51.90
24730;DHT22;12832;52.392;13.066;2023-07-30T01:13:14;28.00;52.00
24730;DHT22;12832;52.392;13.066;2023-07-30T01:15:42;28.00;52.00
24730;DHT22;12832;52.392;13.066;2023-07-30T01:18:09;28.00;52.00
24730;DHT22;12832;52.392;13.066;2023-07-30T01:20:35;28.00;51.90
24730;DHT22;12832;52.392;13.066;2023-07-30T01:23:02;28.00;51.90
24730;DHT22;12832;52.392;13.066;2023-07-30T01:25:30;28.00;51.90
24730;DHT22;12832;52.392;13.066;2023-07-30T01:28:01;28.00;51.90
24730;DHT22;12832;52.392;13.066;2023-07-30T01:30:32;28.00;51.90
24730;DHT22;12832;52.392;13.066;2023-07-30T01:33:00;28.00;51.90
24730;DHT22;12832;52.392;13.066;2023-07-30T01:35:28;28.00;51.90
24730;DHT22;12832;52.392;13.066;2023-07-30T01:37:55;28.00;52.60
24730;DHT22;12832;52.392;13.066;2023-07-30T01:40:21;28.00;51.90
24730;DHT22;12832;52.392;13.066;2023-07-30T01:42:49;28.00;51.90
24730;DHT22;12832;52.392;13.066;2023-07-30T01:45:15;28.00;51.90
24730;DHT22;12832;52.392;13.066;2023-07-30T01:47:41;28.00;51.90
24730;DHT22;12832;52.392;13.066;2023-07-30T01:50:08;28.00;51.90
24730;DHT22;12832;52.392;13.066;2023-07-30T01:52:34;28.00;51.90
24730;DHT22;12832;52.392;13.066;2023-07-30T01:55:00;28.00;51.90
24730;DHT22;12832;52.392;13.066;2023-07-30T01:57:27;28.00;51.90
24730;DHT22;12832;52.392;13.066;2023-07-30T01:59:53;28.00;51.90
24730;DHT22;12832;52.392;13.066;2023-07-30T02:02:19;28.00;51.90
24730;DHT22;12832;52.392;13.066;2023-07-30T02:04:46;28.00;51.90
24730;DHT22;12832;52.392;13.066;2023-07-30T02:07:12;28.00;52.50
24730;DHT22;12832;52.392;13.066;2023-07-30T02:09:38;28.00;51.90
24730;DHT22;12832;52.392;13.066;2023-07-30T02:12:05;28.00;51.90
24730;DHT22;12832;52.392;13.066;2023-07-30T02:14:31;28.00;51.90
24730;DHT22;12832;52.392;13.066;2023-07-30T02:16:57;28.00;51.90
24730;DHT22;12832;52.392;13.066;2023-07-30T02:19:23;28.00;52.00
24730;DHT22;12832;52.392;13.066;2023-07-30T02:21:50;28.00;52.00
24730;DHT22;12832;52.392;13.066;2023-07-30T02:24:16;28.00;52.00
24730;DHT22;12832;52.392;13.066;2023-07-30T02:26:42;28.00;52.00
24730;DHT22;12832;52.392;13.066;2023-07-30T02:29:08;28.00;52.00
24730;DHT22;12832;52.392;13.066;2023-07-30T02:31:34;28.00;52.00
24730;DHT22;12832;52.392;13.066;2023-07-30T02:34:01;28.00;52.00
24730;DHT22;12832;52.392;13.066;2023-07-30T02:36:28;27.90;52.00
24730;DHT22;12832;52.392;13.066;2023-07-30T02:38:54;27.90;52.10
24730;DHT22;12832;52.392;13.066;2023-07-30T02:41:20;27.90;52.10
24730;DHT22;12832;52.392;13.066;2023-07-30T02:43:46;27.90;52.10
24730;DHT22;12832;52.392;13.066;2023-07-30T02:46:13;27.90;52.10
24730;DHT22;12832;52.392;13.066;2023-07-30T02:48:39;27.90;52.10
24730;DHT22;12832;52.392;13.066;2023-07-30T02:51:05;27.90;52.10
24730;DHT22;12832;52.392;13.066;2023-07-30T02:53:32;27.90;52.10
24730;DHT22;12832;52.392;13.066;2023-07-30T02:55:58;27.90;52.10
24730;DHT22;12832;52.392;13.066;2023-07-30T02:58:24;27.90;52.10
24730;DHT22;12832;52.392;13.066;2023-07-30T03:00:50;27.90;52.10
24730;DHT22;12832;52.392;13.066;2023-07-30T03:03:16;27.80;52.00
24730;DHT22;12832;52.392;13.066;2023-07-30T03:05:43;27.90;52.70
24730;DHT22;12832;52.392;13.066;2023-07-30T03:08:09;27.80;52.00
24730;DHT22;12832;52.392;13.066;2023-07-30T03:10:38;27.80;52.10
24730;DHT22;12832;52.392;13.066;2023-07-30T03:13:04;27.80;52.00
24730;DHT22;12832;52.392;13.066;2023-07-30T03:15:31;27.80;52.00
24730;DHT22;12832;52.392;13.066;2023-07-30T03:17:57;27.80;52.00
24730;DHT22;12832;52.392;13.066;2023-07-30T03:20:23;27.80;52.00
24730;DHT22;12832;52.392;13.066;2023-07-30T03:22:50;27.80;52.00
24730;DHT22;12832;52.392;13.066;2023-07-30T03:25:16;27.80;52.00
24730;DHT22;12832;52.392;13.066;2023-07-30T03:27:42;27.80;52.10
24730;DHT22;12832;52.392;13.066;2023-07-30T03:30:09;27.70;52.10
24730;DHT22;12832;52.392;13.066;2023-07-30T03:32:35;27.70;52.10
24730;DHT22;12832;52.392;13.066;2023-07-30T03:35:01;27.70;52.10
24730;DHT22;12832;52.392;13.066;2023-07-30T03:37:27;27.70;52.10
24730;DHT22;12832;52.392;13.066;2023-07-30T03:39:54;27.70;52.70
24730;DHT22;12832;52.392;13.066;2023-07-30T03:42:20;27.70;52.00
24730;DHT22;12832;52.392;13.066;2023-07-30T03:44:46;27.70;52.00
24730;DHT22;12832;52.392;13.066;2023-07-30T03:47:12;27.70;52.00
24730;DHT22;12832;52.392;13.066;2023-07-30T03:49:38;27.70;52.00
24730;DHT22;12832;52.392;13.066;2023-07-30T03:52:05;27.70;52.00
24730;DHT22;12832;52.392;13.066;2023-07-30T03:54:31;27.70;51.90
24730;DHT22;12832;52.392;13.066;2023-07-30T03:56:57;27.70;51.90
24730;DHT22;12832;52.392;13.066;2023-07-30T03:59:23;27.70;51.90
24730;DHT22;12832;52.392;13.066;2023-07-30T04:01:50;27.70;52.00
24730;DHT22;12832;52.392;13.066;2023-07-30T04:04:16;27.70;52.00
24730;DHT22;12832;52.392;13.066;2023-07-30T04:06:42;27.70;52.00
24730;DHT22;12832;52.392;13.066;2023-07-30T04:09:08;27.70;52.00
24730;DHT22;12832;52.392;13.066;2023-07-30T04:11:34;27.70;51.90
24730;DHT22;12832;52.392;13.066;2023-07-30T04:14:01;27.70;51.90
24730;DHT22;12832;52.392;13.066;2023-07-30T04:16:27;27.60;51.90
24730;DHT22;12832;52.392;13.066;2023-07-30T04:18:53;27.60;51.90
24730;DHT22;12832;52.392;13.066;2023-07-30T04:21:19;27.60;51.90
24730;DHT22;12832;52.392;13.066;2023-07-30T04:23:46;27.60;51.80
24730;DHT22;12832;52.392;13.066;2023-07-30T04:26:12;27.60;51.80
24730;DHT22;12832;52.392;13.066;2023-07-30T04:28:38;27.60;51.90
24730;DHT22;12832;52.392;13.066;2023-07-30T04:31:05;27.60;51.90
24730;DHT22;12832;52.392;13.066;2023-07-30T04:33:31;27.60;51.80
24730;DHT22;12832;52.392;13.066;2023-07-30T04:35:57;27.60;51.80
24730;DHT22;12832;52.392;13.066;2023-07-30T04:38:23;27.60;51.80
24730;DHT22;12832;52.392;13.066;2023-07-30T04:40:50;27.60;51.80
24730;DHT22;12832;52.392;13.066;2023-07-30T04:43:16;27.70;51.80
24730;DHT22;12832;52.392;13.066;2023-07-30T04:45:43;27.60;51.80
24730;DHT22;12832;52.392;13.066;2023-07-30T04:48:09;27.60;51.80
24730;DHT22;12832;52.392;13.066;2023-07-30T04:50:35;27.60;51.70
24730;DHT22;12832;52.392;13.066;2023-07-30T04:53:01;27.60;51.80
24730;DHT22;12832;52.392;13.066;2023-07-30T04:55:28;27.50;51.80
24730;DHT22;12832;52.392;13.066;2023-07-30T04:57:54;27.60;51.80
24730;DHT22;12832;52.392;13.066;2023-07-30T05:00:20;27.50;51.80
24730;DHT22;12832;52.392;13.066;2023-07-30T05:02:46;27.50;51.80
24730;DHT22;12832;52.392;13.066;2023-07-30T05:05:12;27.50;51.70
24730;DHT22;12832;52.392;13.066;2023-07-30T05:07:39;27.60;51.80
24730;DHT22;12832;52.392;13.066;2023-07-30T05:10:05;27.60;51.70
24730;DHT22;12832;52.392;13.066;2023-07-30T05:12:34;27.60;51.70
24730;DHT22;12832;52.392;13.066;2023-07-30T05:15:00;27.60;51.70
24730;DHT22;12832;52.392;13.066;2023-07-30T05:17:26;27.60;51.70
24730;DHT22;12832;52.392;13.066;2023-07-30T05:19:52;27.50;51.60
24730;DHT22;12832;52.392;13.066;2023-07-30T05:22:18;27.50;51.70
24730;DHT22;12832;52.392;13.066;2023-07-30T05:24:45;27.50;51.60
24730;DHT22;12832;52.392;13.066;2023-07-30T05:27:11;27.60;51.70
24730;DHT22;12832;52.392;13.066;2023-07-30T05:29:37;27.60;51.70
24730;DHT22;12832;52.392;13.066;2023-07-30T05:32:04;27.60;51.60
24730;DHT22;12832;52.392;13.066;2023-07-30T05:34:30;27.60;51.60
24730;DHT22;12832;52.392;13.066;2023-07-30T05:36:56;27.60;51.60
24730;DHT22;12832;52.392;13.066;2023-07-30T05:39:22;27.60;51.60
24730;DHT22;12832;52.392;13.066;2023-07-30T05:41:48;27.60;51.60
24730;DHT22;12832;52.392;13.066;2023-07-30T05:44:15;27.60;51.60
24730;DHT22;12832;52.392;13.066;2023-07-30T05:46:41;27.60;51.60
24730;DHT22;12832;52.392;13.066;2023-07-30T05:49:07;27.60;51.60
24730;DHT22;12832;52.392;13.066;2023-07-30T05:51:33;27.60;51.60
24730;DHT22;12832;52.392;13.066;2023-07-30T05:54:00;27.60;51.60
24730;DHT22;12832;52.392;13.066;2023-07-30T05:56:26;27.60;51.50
24730;DHT22;12832;52.392;13.066;2023-07-30T05:58:52;27.60;51.60
24730;DHT22;12832;52.392;13.066;2023-07-30T06:01:19;27.60;51.50
24730;DHT22;12832;52.392;13.066;2023-07-30T06:03:46;27.60;51.50
24730;DHT22;12832;52.392;13.066;2023-07-30T06:06:12;27.60;51.50
24730;DHT22;12832;52.392;13.066;2023-07-30T06:08:38;27.60;51.50
24730;DHT22;12832;52.392;13.066;2023-07-30T06:11:04;27.60;51.50
24730;DHT22;12832;52.392;13.066;2023-07-30T06:13:30;27.60;51.50
24730;DHT22;12832;52.392;13.066;2023-07-30T06:15:57;27.60;51.50
24730;DHT22;12832;52.392;13.066;2023-07-30T06:18:23;27.60;51.50
24730;DHT22;12832;52.392;13.066;2023-07-30T06:20:49;27.70;51.60
24730;DHT22;12832;52.392;13.066;2023-07-30T06:23:16;27.60;51.50
24730;DHT22;12832;52.392;13.066;2023-07-30T06:25:42;27.60;51.50
24730;DHT22;12832;52.392;13.066;2023-07-30T06:28:08;27.70;51.50
24730;DHT22;12832;52.392;13.066;2023-07-30T06:30:34;27.70;51.50
24730;DHT22;12832;52.392;13.066;2023-07-30T06:33:02;27.70;51.50
24730;DHT22;12832;52.392;13.066;2023-07-30T06:35:28;27.70;51.50
24730;DHT22;12832;52.392;13.066;2023-07-30T06:37:55;27.70;51.50
24730;DHT22;12832;52.392;13.066;2023-07-30T06:40:21;27.70;51.50
24730;DHT22;12832;52.392;13.066;2023-07-30T06:42:47;27.70;51.50
24730;DHT22;12832;52.392;13.066;2023-07-30T06:45:13;27.70;51.40
24730;DHT22;12832;52.392;13.066;2023-07-30T06:47:39;27.70;51.40
24730;DHT22;12832;52.392;13.066;2023-07-30T06:50:06;27.70;51.40
24730;DHT22;12832;52.392;13.066;2023-07-30T06:52:35;27.70;51.40
24730;DHT22;12832;52.392;13.066;2023-07-30T06:55:02;27.70;51.40
24730;DHT22;12832;52.392;13.066;2023-07-30T06:57:31;27.70;51.40
24730;DHT22;12832;52.392;13.066;2023-07-30T06:59:57;27.70;51.40
24730;DHT22;12832;52.392;13.066;2023-07-30T07:02:26;27.70;51.40
24730;DHT22;12832;52.392;13.066;2023-07-30T07:04:54;27.70;51.40
24730;DHT22;12832;52.392;13.066;2023-07-30T07:07:20;27.70;51.30
24730;DHT22;12832;52.392;13.066;2023-07-30T07:09:46;27.70;51.30
24730;DHT22;12832;52.392;13.066;2023-07-30T07:12:13;27.70;51.30
24730;DHT22;12832;52.392;13.066;2023-07-30T07:14:39;27.70;51.30
24730;DHT22;12832;52.392;13.066;2023-07-30T07:17:06;27.80;51.40
24730;DHT22;12832;52.392;13.066;2023-07-30T07:19:32;27.70;51.30
24730;DHT22;12832;52.392;13.066;2023-07-30T07:22:04;27.70;51.40
24730;DHT22;12832;52.392;13.066;2023-07-30T07:24:30;27.70;51.30
24730;DHT22;12832;52.392;13.066;2023-07-30T07:26:57;27.70;51.30
24730;DHT22;12832;52.392;13.066;2023-07-30T07:29:23;27.70;51.30
24730;DHT22;12832;52.392;13.066;2023-07-30T07:31:49;27.70;51.30
24730;DHT22;12832;52.392;13.066;2023-07-30T07:34:16;27.70;51.30
24730;DHT22;12832;52.392;13.066;2023-07-30T07:36:42;27.70;51.30
24730;DHT22;12832;52.392;13.066;2023-07-30T07:39:08;27.70;51.30
24730;DHT22;12832;52.392;13.066;2023-07-30T07:41:34;27.70;51.30
24730;DHT22;12832;52.392;13.066;2023-07-30T07:44:01;27.70;51.30
24730;DHT22;12832;52.392;13.066;2023-07-30T07:46:27;27.70;51.30
24730;DHT22;12832;52.392;13.066;2023-07-30T07:48:54;27.70;51.30
24730;DHT22;12832;52.392;13.066;2023-07-30T07:51:20;27.70;51.30
24730;DHT22;12832;52.392;13.066;2023-07-30T07:53:46;27.70;51.30
24730;DHT22;12832;52.392;13.066;2023-07-30T07:56:12;27.80;51.30
24730;DHT22;12832;52.392;13.066;2023-07-30T07:58:38;27.70;51.30
24730;DHT22;12832;52.392;13.066;2023-07-30T08:01:05;27.70;51.30
24730;DHT22;12832;52.392;13.066;2023-07-30T08:03:31;27.70;51.30
24730;DHT22;12832;52.392;13.066;2023-07-30T08:05:57;27.70;51.30
24730;DHT22;12832;52.392;13.066;2023-07-30T08:08:26;27.80;51.30
24730;DHT22;12832;52.392;13.066;2023-07-30T08:10:53;27.80;51.30
24730;DHT22;12832;52.392;13.066;2023-07-30T08:13:19;27.80;51.30
24730;DHT22;12832;52.392;13.066;2023-07-30T08:15:46;27.70;51.30
24730;DHT22;12832;52.392;13.066;2023-07-30T08:18:12;27.80;51.30
24730;DHT22;12832;52.392;13.066;2023-07-30T08:20:38;27.70;51.20
24730;DHT22;12832;52.392;13.066;2023-07-30T08:23:05;27.80;51.30
24730;DHT22;12832;52.392;13.066;2023-07-30T08:25:31;27.80;51.30
24730;DHT22;12832;52.392;13.066;2023-07-30T08:27:57;27.80;51.30
24730;DHT22;12832;52.392;13.066;2023-07-30T08:30:23;27.80;51.30
24730;DHT22;12832;52.392;13.066;2023-07-30T08:32:49;27.70;51.20
24730;DHT22;12832;52.392;13.066;2023-07-30T08:35:16;27.80;51.30
24730;DHT22;12832;52.392;13.066;2023-07-30T08:37:42;27.80;51.30
24730;DHT22;12832;52.392;13.066;2023-07-30T08:40:09;27.80;51.20
24730;DHT22;12832;52.392;13.066;2023-07-30T08:42:35;27.80;51.30
24730;DHT22;12832;52.392;13.066;2023-07-30T08:45:05;27.80;51.30
24730;DHT22;12832;52.392;13.066;2023-07-30T08:47:32;27.80;51.30
24730;DHT22;12832;52.392;13.066;2023-07-30T08:49:58;27.80;51.20
24730;DHT22;12832;52.392;13.066;2023-07-30T08:52:25;27.80;51.20
24730;DHT22;12832;52.392;13.066;2023-07-30T08:54:52;27.80;51.30
24730;DHT22;12832;52.392;13.066;2023-07-30T08:57:19;27.80;51.20
24730;DHT22;12832;52.392;13.066;2023-07-30T08:59:49;27.80;51.20
24730;DHT22;12832;52.392;13.066;2023-07-30T09:02:38;27.80;51.20
24730;DHT22;12832;52.392;13.066;2023-07-30T09:05:06;27.80;51.20
24730;DHT22;12832;52.392;13.066;2023-07-30T09:07:32;27.80;51.20
24730;DHT22;12832;52.392;13.066;2023-07-30T09:09:59;27.70;51.20
24730;DHT22;12832;52.392;13.066;2023-07-30T09:12:29;27.80;51.20
24730;DHT22;12832;52.392;13.066;2023-07-30T09:14:56;27.80;51.20
24730;DHT22;12832;52.392;13.066;2023-07-30T09:17:23;27.80;51.20
24730;DHT22;12832;52.392;13.066;2023-07-30T09:19:49;27.80;51.20
24730;DHT22;12832;52.392;13.066;2023-07-30T09:22:29;27.80;51.20
24730;DHT22;12832;52.392;13.066;2023-07-30T09:24:56;27.80;51.20
24730;DHT22;12832;52.392;13.066;2023-07-30T09:27:24;27.80;51.20
24730;DHT22;12832;52.392;13.066;2023-07-30T09:29:56;27.80;51.20
24730;DHT22;12832;52.392;13.066;2023-07-30T09:32:30;27.80;51.20
24730;DHT22;12832;52.392;13.066;2023-07-30T09:35:07;27.80;51.20
24730;DHT22;12832;52.392;13.066;2023-07-30T09:37:37;27.80;51.20
24730;DHT22;12832;52.392;13.066;2023-07-30T09:40:08;27.80;51.20
24730;DHT22;12832;52.392;13.066;2023-07-30T09:42:35;27.80;51.20
24730;DHT22;12832;52.392;13.066;2023-07-30T09:45:06;27.80;51.20
24730;DHT22;12832;52.392;13.066;2023-07-30T09:47:38;27.80;51.20
24730;DHT22;12832;52.392;13.066;2023-07-30T09:50:05;27.80;51.20
24730;DHT22;12832;52.392;13.066;2023-07-30T09:52:32;27.80;51.20
24730;DHT22;12832;52.392;13.066;2023-07-30T09:54:58;27.80;51.20
24730;DHT22;12832;52.392;13.066;2023-07-30T09:57:25;27.80;51.20
24730;DHT22;12832;52.392;13.066;2023-07-30T09:59:51;27.80;51.20
24730;DHT22;12832;52.392;13.066;2023-07-30T10:02:19;27.80;51.10
24730;DHT22;12832;52.392;13.066;2023-07-30T10:04:49;27.80;51.20
24730;DHT22;12832;52.392;13.066;2023-07-30T10:07:20;27.80;51.20
24730;DHT22;12832;52.392;13.066;2023-07-30T10:09:49;27.80;51.10
24730;DHT22;12832;52.392;13.066;2023-07-30T10:12:23;27.80;51.10
24730;DHT22;12832;52.392;13.066;2023-07-30T10:14:50;27.80;51.10
24730;DHT22;12832;52.392;13.066;2023-07-30T10:17:17;27.80;51.20
24730;DHT22;12832;52.392;13.066;2023-07-30T10:19:47;27.80;51.10
24730;DHT22;12832;52.392;13.066;2023-07-30T10:24:58;27.80;51.10
24730;DHT22;12832;52.392;13.066;2023-07-30T10:27:27;27.80;51.10
24730;DHT22;12832;52.392;13.066;2023-07-30T10:30:14;27.80;51.10
24730;DHT22;12832;52.392;13.066;2023-07-30T10:32:57;27.80;51.10
24730;DHT22;12832;52.392;13.066;2023-07-30T10:35:43;27.80;51.10
24730;DHT22;12832;52.392;13.066;2023-07-30T10:38:20;27.80;51.10
24730;DHT22;12832;52.392;13.066;2023-07-30T10:41:00;27.80;51.10
24730;DHT22;12832;52.392;13.066;2023-07-30T10:43:28;27.80;51.10
24730;DHT22;12832;52.392;13.066;2023-07-30T10:45:55;27.80;51.10
24730;DHT22;12832;52.392;13.066;2023-07-30T10:48:34;27.80;51.10
24730;DHT22;12832;52.392;13.066;2023-07-30T10:51:02;27.80;51.10
24730;DHT22;12832;52.392;13.066;2023-07-30T10:53:29;27.80;51.10
24730;DHT22;12832;52.392;13.066;2023-07-30T10:56:00;27.80;51.10
24730;DHT22;12832;52.392;13.066;2023-07-30T10:58:31;27.80;51.10
24730;DHT22;12832;52.392;13.066;2023-07-30T11:00:58;27.80;51.10
24730;DHT22;12832;52.392;13.066;2023-07-30T11:03:27;27.80;51.10
24730;DHT22;12832;52.392;13.066;2023-07-30T11:05:54;27.80;51.10
24730;DHT22;12832;52.392;13.066;2023-07-30T11:08:40;27.80;51.10
24730;DHT22;12832;52.392;13.066;2023-07-30T11:11:08;27.80;51.10
24730;DHT22;12832;52.392;13.066;2023-07-30T11:13:40;27.80;51.70
24730;DHT22;12832;52.392;13.066;2023-07-30T11:16:08;27.80;51.10
24730;DHT22;12832;52.392;13.066;2023-07-30T11:18:39;27.80;51.10
24730;DHT22;12832;52.392;13.066;2023-07-30T11:21:07;27.80;51.10
24730;DHT22;12832;52.392;13.066;2023-07-30T11:23:37;27.80;51.10
24730;DHT22;12832;52.392;13.066;2023-07-30T11:26:06;27.80;51.10
24730;DHT22;12832;52.392;13.066;2023-07-30T11:28:36;27.80;51.10
24730;DHT22;12832;52.392;13.066;2023-07-30T11:31:06;27.80;51.10
24730;DHT22;12832;52.392;13.066;2023-07-30T11:33:34;27.80;51.10
24730;DHT22;12832;52.392;13.066;2023-07-30T11:36:02;27.80;51.10
24730;DHT22;12832;52.392;13.066;2023-07-30T11:38:30;27.80;51.10
24730;DHT22;12832;52.392;13.066;2023-07-30T11:40:57;27.80;51.00
24730;DHT22;12832;52.392;13.066;2023-07-30T11:43:24;27.80;51.70
24730;DHT22;12832;52.392;13.066;2023-07-30T11:46:09;27.80;51.00
24730;DHT22;12832;52.392;13.066;2023-07-30T11:48:36;27.80;51.00
24730;DHT22;12832;52.392;13.066;2023-07-30T11:51:02;27.80;51.00
24730;DHT22;12832;52.392;13.066;2023-07-30T11:56:24;27.80;51.00
24730;DHT22;12832;52.392;13.066;2023-07-30T11:58:55;27.80;51.00
24730;DHT22;12832;52.392;13.066;2023-07-30T12:01:24;27.80;51.00
24730;DHT22;12832;52.392;13.066;2023-07-30T12:03:50;27.80;51.00
24730;DHT22;12832;52.392;13.066;2023-07-30T12:06:19;27.80;51.00
24730;DHT22;12832;52.392;13.066;2023-07-30T12:08:48;27.80;51.00
24730;DHT22;12832;52.392;13.066;2023-07-30T12:11:14;27.80;51.00
24730;DHT22;12832;52.392;13.066;2023-07-30T12:13:44;27.80;51.00
24730;DHT22;12832;52.392;13.066;2023-07-30T12:16:16;27.80;51.00
24730;DHT22;12832;52.392;13.066;2023-07-30T12:18:46;27.80;51.60
24730;DHT22;12832;52.392;13.066;2023-07-30T12:21:12;27.80;51.00
24730;DHT22;12832;52.392;13.066;2023-07-30T12:23:38;27.80;51.00
24730;DHT22;12832;52.392;13.066;2023-07-30T12:26:04;27.80;51.00
24730;DHT22;12832;52.392;13.066;2023-07-30T12:28:33;27.80;51.00
24730;DHT22;12832;52.392;13.066;2023-07-30T12:31:01;27.80;51.00
24730;DHT22;12832;52.392;13.066;2023-07-30T12:33:27;27.80;51.00
24730;DHT22;12832;52.392;13.066;2023-07-30T12:35:53;27.80;51.10
24730;DHT22;12832;52.392;13.066;2023-07-30T12:38:19;27.90;51.70
24730;DHT22;12832;52.392;13.066;2023-07-30T12:40:46;27.80;51.00
24730;DHT22;12832;52.392;13.066;2023-07-30T12:43:12;27.90;51.00
24730;DHT22;12832;52.392;13.066;2023-07-30T12:45:39;27.90;51.10
24730;DHT22;12832;52.392;13.066;2023-07-30T12:48:05;27.80;51.00
24730;DHT22;12832;52.392;13.066;2023-07-30T12:50:33;27.80;51.00
24730;DHT22;12832;52.392;13.066;2023-07-30T12:52:59;27.80;51.00
24730;DHT22;12832;52.392;13.066;2023-07-30T12:55:26;27.90;51.00
24730;DHT22;12832;52.392;13.066;2023-07-30T12:57:52;27.80;51.00
24730;DHT22;12832;52.392;13.066;2023-07-30T13:00:18;27.90;51.00
24730;DHT22;12832;52.392;13.066;2023-07-30T13:02:44;27.80;51.00
24730;DHT22;12832;52.392;13.066;2023-07-30T13:05:11;27.90;51.00
24730;DHT22;12832;52.392;13.066;2023-07-30T13:07:39;27.80;51.00
24730;DHT22;12832;52.392;13.066;2023-07-30T13:10:07;27.80;50.90
24730;DHT22;12832;52.392;13.066;2023-07-30T13:12:34;27.90;51.00
24730;DHT22;12832;52.392;13.066;2023-07-30T13:15:01;27.90;51.00
24730;DHT22;12832;52.392;13.066;2023-07-30T13:17:28;27.90;51.00
24730;DHT22;12832;52.392;13.066;2023-07-30T13:19:55;27.80;50.90
24730;DHT22;12832;52.392;13.066;2023-07-30T13:22:21;27.90;51.00
24730;DHT22;12832;52.392;13.066;2023-07-30T13:24:47;27.90;51.00
24730;DHT22;12832;52.392;13.066;2023-07-30T13:27:14;27.80;50.90
24730;DHT22;12832;52.392;13.066;2023-07-30T13:29:40;27.90;51.00
24730;DHT22;12832;52.392;13.066;2023-07-30T13:32:06;27.90;51.00
24730;DHT22;12832;52.392;13.066;2023-07-30T13:34:32;27.90;51.00
24730;DHT22;12832;52.392;13.066;2023-07-30T13:36:59;27.90;51.00
24730;DHT22;12832;52.392;13.066;2023-07-30T13:39:25;27.90;51.00
24730;DHT22;12832;52.392;13.066;2023-07-30T13:41:51;27.80;51.00
24730;DHT22;12832;52.392;13.066;2023-07-30T13:44:17;27.90;51.70
24730;DHT22;12832;52.392;13.066;2023-07-30T13:46:43;27.90;51.00
24730;DHT22;12832;52.392;13.066;2023-07-30T13:49:10;27.80;51.00
24730;DHT22;12832;52.392;13.066;2023-07-30T13:51:36;27.90;51.00
24730;DHT22;12832;52.392;13.066;2023-07-30T13:54:03;27.90;51.00
24730;DHT22;12832;52.392;13.066;2023-07-30T13:56:29;27.90;51.00
24730;DHT22;12832;52.392;13.066;2023-07-30T13:58:56;27.90;51.00
24730;DHT22;12832;52.392;13.066;2023-07-30T14:01:22;27.90;51.00
24730;DHT22;12832;52.392;13.066;2023-07-30T14:03:49;27.80;50.90
24730;DHT22;12832;52.392;13.066;2023-07-30T14:06:15;27.90;51.00
24730;DHT22;12832;52.392;13.066;2023-07-30T14:08:41;27.90;51.00
24730;DHT22;12832;52.392;13.066;2023-07-30T14:11:07;27.80;50.90
24730;DHT22;12832;52.392;13.066;2023-07-30T14:13:34;27.90;50.90
24730;DHT22;12832;52.392;13.066;2023-07-30T14:16:00;27.90;50.90
24730;DHT22;12832;52.392;13.066;2023-07-30T14:18:26;27.90;50.90
24730;DHT22;12832;52.392;13.066;2023-07-30T14:20:53;27.90;50.90
24730;DHT22;12832;52.392;13.066;2023-07-30T14:23:19;27.90;50.90
24730;DHT22;12832;52.392;13.066;2023-07-30T14:25:45;27.90;50.90
24730;DHT22;12832;52.392;13.066;2023-07-30T14:28:11;27.90;51.00
24730;DHT22;12832;52.392;13.066;2023-07-30T14:30:39;27.90;51.00
24730;DHT22;12832;52.392;13.066;2023-07-30T14:33:13;27.90;50.90
24730;DHT22;12832;52.392;13.066;2023-07-30T14:35:40;27.90;50.90
24730;DHT22;12832;52.392;13.066;2023-07-30T14:38:06;27.90;50.90
24730;DHT22;12832;52.392;13.066;2023-07-30T14:40:32;27.90;50.90
24730;DHT22;12832;52.392;13.066;2023-07-30T14:42:59;27.90;50.90
24730;DHT22;12832;52.392;13.066;2023-07-30T14:45:25;27.90;50.90
24730;DHT22;12832;52.392;13.066;2023-07-30T14:47:51;27.90;50.90
24730;DHT22;12832;52.392;13.066;2023-07-30T14:50:18;27.90;50.90
24730;DHT22;12832;52.392;13.066;2023-07-30T14:52:44;27.90;50.90
24730;DHT22;12832;52.392;13.066;2023-07-30T14:55:10;27.90;50.90
24730;DHT22;12832;52.392;13.066;2023-07-30T14:57:37;27.90;50.90
24730;DHT22;12832;52.392;13.066;2023-07-30T15:00:04;27.90;50.90
24730;DHT22;12832;52.392;13.066;2023-07-30T15:02:30;27.80;50.80
24730;DHT22;12832;52.392;13.066;2023-07-30T15:04:57;27.90;50.90
24730;DHT22;12832;52.392;13.066;2023-07-30T15:07:23;27.90;50.90
24730;DHT22;12832;52.392;13.066;2023-07-30T15:09:54;27.90;50.90
24730;DHT22;12832;52.392;13.066;2023-07-30T15:12:21;27.90;50.90
24730;DHT22;12832;52.392;13.066;2023-07-30T15:14:47;27.90;50.90
24730;DHT22;12832;52.392;13.066;2023-07-30T15:17:13;27.90;50.90
24730;DHT22;12832;52.392;13.066;2023-07-30T15:19:40;27.90;50.90
24730;DHT22;12832;52.392;13.066;2023-07-30T15:22:06;27.90;50.90